createdAt,value
2022-12-04T00:04:55.695Z,20.25
2022-12-04T00:25:18.179Z,20.60
2022-12-04T00:35:19.449Z,21.80
2022-12-04T00:45:20.686Z,21.38
2022-12-04T00:55:21.926Z,20.05
2022-12-04T01:05:23.151Z,19.40
2022-12-04T01:15:24.352Z,18.63
2022-12-04T01:25:25.605Z,18.15
2022-12-04T01:35:26.851Z,20.20
2022-12-04T01:45:28.191Z,18.88
2022-12-04T01:55:29.533Z,19.65
2022-12-04T02:05:30.800Z,19.58
2022-12-04T02:15:32.068Z,20.15
2022-12-04T02:25:33.364Z,20.30
2022-12-04T02:35:34.618Z,21.45
2022-12-04T02:45:35.927Z,19.92
2022-12-04T02:55:37.242Z,19.55
2022-12-04T03:05:38.479Z,18.13
2022-12-04T03:15:39.727Z,18.00
2022-12-04T03:25:40.991Z,18.15
2022-12-04T03:35:42.244Z,19.65
2022-12-04T03:45:43.506Z,18.58
2022-12-04T03:55:44.749Z,18.75
2022-12-04T04:05:46.054Z,18.75
2022-12-04T04:15:47.342Z,19.23
2022-12-04T04:25:48.602Z,20.33
2022-12-04T04:35:49.841Z,19.73
2022-12-04T04:45:51.107Z,18.58
2022-12-04T04:55:52.444Z,20.27
2022-12-04T05:05:54.813Z,18.83
2022-12-04T05:15:56.154Z,18.45
2022-12-04T05:25:57.459Z,20.38
2022-12-04T05:35:58.737Z,18.27
2022-12-04T05:46:00.015Z,19.35
2022-12-04T05:56:01.337Z,19.60
2022-12-04T06:06:02.622Z,19.33
2022-12-04T06:16:03.949Z,19.88
2022-12-04T06:26:07.143Z,18.42
2022-12-04T06:36:08.760Z,19.02
2022-12-04T06:46:10.108Z,18.63
2022-12-04T06:56:11.491Z,19.23
2022-12-04T07:06:12.811Z,19.35
2022-12-04T07:16:14.160Z,17.65
2022-12-04T07:26:15.477Z,18.10
2022-12-04T07:36:16.746Z,18.90
2022-12-04T07:46:18.066Z,18.33
2022-12-04T07:56:19.385Z,16.35
2022-12-04T08:06:20.631Z,17.27
2022-12-04T08:16:21.953Z,18.40
2022-12-04T08:26:23.213Z,17.38
2022-12-04T08:36:24.471Z,15.32
2022-12-04T08:46:25.856Z,14.90
2022-12-04T08:56:27.197Z,16.35
2022-12-04T09:06:28.521Z,14.40
2022-12-04T09:16:29.951Z,13.18
2022-12-04T09:26:31.415Z,13.60
2022-12-04T09:36:32.634Z,12.35
2022-12-04T09:46:33.944Z,14.55
2022-12-04T09:56:35.497Z,15.32
2022-12-04T10:06:38.248Z,11.43
2022-12-04T10:16:39.572Z,12.30
2022-12-04T10:26:40.853Z,11.93
2022-12-04T10:36:42.205Z,10.15
2022-12-04T10:46:46.331Z,10.13
2022-12-04T10:56:47.938Z,10.52
2022-12-04T11:06:49.194Z,9.88
2022-12-04T11:16:50.427Z,10.93
2022-12-04T11:26:51.692Z,11.82
2022-12-04T11:36:53.913Z,10.75
2022-12-04T11:46:57.845Z,9.55
2022-12-04T11:57:02.512Z,9.48
2022-12-04T12:07:04.412Z,8.90
2022-12-04T12:17:05.717Z,10.18
2022-12-04T12:27:07.045Z,8.55
2022-12-04T12:37:08.281Z,9.63
2022-12-04T12:47:09.561Z,8.63
2022-12-04T12:57:10.850Z,8.38
2022-12-04T13:07:12.127Z,8.25
2022-12-04T13:17:13.530Z,8.77
2022-12-04T13:27:16.837Z,7.72
2022-12-04T13:37:27.972Z,7.70
2022-12-04T13:47:29.774Z,7.97
2022-12-04T14:07:53.798Z,8.27
2022-12-04T14:17:55.057Z,8.38
2022-12-04T14:27:56.278Z,8.93
2022-12-04T14:37:57.521Z,7.80
2022-12-04T14:47:58.789Z,7.18
2022-12-04T14:58:00.085Z,6.90
2022-12-04T15:08:01.422Z,8.05
2022-12-04T15:18:02.778Z,9.55
2022-12-04T15:28:04.006Z,8.93
2022-12-04T15:38:05.270Z,8.43
2022-12-04T15:48:06.578Z,9.25
2022-12-04T15:58:07.832Z,7.88
2022-12-04T16:08:09.128Z,8.10
2022-12-04T16:18:10.417Z,9.65
2022-12-04T16:28:11.714Z,7.97
2022-12-04T16:38:12.979Z,8.32
2022-12-04T16:48:14.206Z,8.30
2022-12-04T16:58:15.546Z,8.15
2022-12-04T17:08:17.027Z,7.53
2022-12-04T17:18:21.229Z,7.97
2022-12-04T17:28:22.919Z,8.57
2022-12-04T17:38:24.153Z,9.23
2022-12-04T17:48:25.396Z,10.40
2022-12-04T17:58:26.648Z,9.52
2022-12-04T18:08:27.913Z,9.02
2022-12-04T18:18:29.175Z,9.50
2022-12-04T18:28:30.418Z,9.73
2022-12-04T18:38:31.734Z,9.20
2022-12-04T18:48:33.017Z,11.23
2022-12-04T18:58:34.271Z,11.05
2022-12-04T19:08:40.004Z,10.18
2022-12-04T19:18:44.023Z,10.82
2022-12-04T19:28:45.272Z,11.77
2022-12-04T19:38:46.516Z,11.40
2022-12-04T19:48:47.865Z,12.00
2022-12-04T19:58:49.132Z,11.48
2022-12-04T20:08:50.393Z,11.35
2022-12-04T20:18:51.657Z,11.00
2022-12-04T20:28:52.964Z,9.98
2022-12-04T20:38:54.218Z,10.00
2022-12-04T20:48:55.461Z,11.43
2022-12-04T20:58:56.727Z,11.18
2022-12-04T21:08:57.955Z,10.00
2022-12-04T21:18:59.248Z,10.13
2022-12-04T21:29:00.630Z,12.50
2022-12-04T21:39:01.902Z,9.40
2022-12-04T21:49:03.230Z,11.30
2022-12-04T21:59:04.507Z,11.32
2022-12-04T22:09:11.413Z,10.75
2022-12-04T22:19:12.792Z,11.98
2022-12-04T22:29:48.067Z,10.88
2022-12-04T22:39:35.365Z,11.43
2022-12-04T22:49:36.651Z,11.35
2022-12-04T22:59:37.861Z,10.48
2022-12-04T23:09:39.195Z,11.80
2022-12-04T23:19:40.454Z,11.52
2022-12-04T23:29:56.992Z,12.43
2022-12-04T23:39:58.439Z,11.65
2022-12-04T23:50:00.127Z,12.05
